createdAt,value
2017-06-13T00:00:27.736Z,18.18
2017-06-13T00:00:56.237Z,18.13
2017-06-13T00:01:24.845Z,18.15
2017-06-13T00:01:53.357Z,18.05
2017-06-13T00:02:21.953Z,18.09
2017-06-13T00:02:50.576Z,18.09
2017-06-13T00:03:19.122Z,18.05
2017-06-13T00:03:47.666Z,18.03
2017-06-13T00:04:16.311Z,18
2017-06-13T00:04:44.913Z,17.94
2017-06-13T00:05:13.550Z,17.94
2017-06-13T00:05:42.189Z,17.95
2017-06-13T00:06:10.790Z,17.9
2017-06-13T00:06:39.342Z,17.9
2017-06-13T00:07:07.960Z,17.84
2017-06-13T00:07:36.609Z,17.82
2017-06-13T00:08:05.212Z,17.82
2017-06-13T00:08:33.817Z,17.86
2017-06-13T00:09:02.332Z,17.72
2017-06-13T00:09:31.022Z,17.76
2017-06-13T00:09:59.556Z,17.69
2017-06-13T00:10:28.173Z,17.73
2017-06-13T00:10:56.708Z,17.73
2017-06-13T00:11:25.218Z,17.68
2017-06-13T00:11:53.852Z,17.71
2017-06-13T00:12:22.534Z,17.63
2017-06-13T00:12:51.141Z,17.6
2017-06-13T00:13:19.778Z,17.65
2017-06-13T00:13:48.483Z,17.78
2017-06-13T00:14:17.019Z,17.69
2017-06-13T00:14:45.662Z,17.75
2017-06-13T00:15:14.214Z,17.78
2017-06-13T00:15:42.724Z,17.79
2017-06-13T00:16:11.347Z,17.75
2017-06-13T00:16:41.646Z,17.8
2017-06-13T00:17:10.247Z,17.79
2017-06-13T00:17:38.691Z,17.84
2017-06-13T00:18:07.313Z,17.76
2017-06-13T00:18:35.846Z,17.79
2017-06-13T00:19:04.445Z,17.82
2017-06-13T00:19:32.986Z,17.78
2017-06-13T00:20:01.423Z,17.75
2017-06-13T00:20:30.067Z,17.84
2017-06-13T00:20:58.670Z,17.78
2017-06-13T00:21:27.350Z,17.87
2017-06-13T00:21:56.705Z,17.8
2017-06-13T00:22:25.321Z,17.78
2017-06-13T00:22:53.932Z,17.84
2017-06-13T00:23:22.533Z,17.8
2017-06-13T00:23:50.973Z,17.86
2017-06-13T00:24:19.554Z,17.86
2017-06-13T00:24:48.168Z,17.86
2017-06-13T00:25:16.807Z,17.82
2017-06-13T00:25:45.425Z,17.8
2017-06-13T00:26:13.930Z,17.82
2017-06-13T00:26:42.478Z,17.75
2017-06-13T00:27:11.073Z,17.75
2017-06-13T00:27:39.724Z,17.8
2017-06-13T00:28:08.342Z,17.8
2017-06-13T00:28:36.977Z,17.8
2017-06-13T00:29:05.582Z,17.75
2017-06-13T00:29:35.014Z,17.76
2017-06-13T00:30:03.661Z,17.68
2017-06-13T00:30:32.308Z,17.68
2017-06-13T00:31:00.734Z,17.65
2017-06-13T00:31:29.373Z,17.59
2017-06-13T00:31:57.983Z,17.63
2017-06-13T00:32:26.420Z,17.54
2017-06-13T00:32:55.021Z,17.44
2017-06-13T00:33:23.648Z,17.5
2017-06-13T00:33:52.205Z,17.44
2017-06-13T00:34:20.638Z,17.52
2017-06-13T00:34:49.261Z,17.37
2017-06-13T00:35:17.892Z,17.38
2017-06-13T00:35:46.570Z,17.38
2017-06-13T00:36:15.080Z,17.38
2017-06-13T00:36:43.615Z,17.37
2017-06-13T00:37:12.154Z,17.31
2017-06-13T00:37:40.790Z,17.31
2017-06-13T00:38:09.385Z,17.37
2017-06-13T00:38:38.024Z,17.28
2017-06-13T00:39:06.572Z,17.23
2017-06-13T00:39:35.199Z,17.23
2017-06-13T00:40:03.721Z,17.23
2017-06-13T00:40:32.285Z,17.22
2017-06-13T00:41:00.900Z,17.24
2017-06-13T00:41:29.539Z,17.19
2017-06-13T00:41:58.073Z,17.17
2017-06-13T00:42:26.688Z,17.2
2017-06-13T00:42:55.295Z,17.13
2017-06-13T00:43:23.872Z,17.19
2017-06-13T00:43:52.484Z,17.17
2017-06-13T00:44:21.108Z,17.17
2017-06-13T00:44:49.722Z,17.16
2017-06-13T00:45:18.363Z,17.19
2017-06-13T00:45:46.895Z,17.19
2017-06-13T00:46:15.506Z,17.17
2017-06-13T00:46:44.016Z,17.14
2017-06-13T00:47:12.611Z,17.14
2017-06-13T00:47:41.263Z,17.24
2017-06-13T00:48:09.691Z,17.22
2017-06-13T00:48:38.179Z,17.22
2017-06-13T00:49:07.214Z,17.19
2017-06-13T00:49:35.809Z,17.22
2017-06-13T00:50:04.427Z,17.22
2017-06-13T00:50:33.055Z,17.17
2017-06-13T00:51:01.622Z,17.13
2017-06-13T00:51:30.228Z,17.17
2017-06-13T00:51:58.752Z,17.13
2017-06-13T00:52:27.256Z,17.14
2017-06-13T00:52:55.861Z,17.1
2017-06-13T00:53:24.508Z,17.2
2017-06-13T00:53:53.055Z,17.1
2017-06-13T00:54:21.758Z,17.19
2017-06-13T00:54:50.388Z,17.19
2017-06-13T00:55:18.939Z,17.16
2017-06-13T00:55:47.444Z,17.17
2017-06-13T00:56:15.960Z,17.09
2017-06-13T00:56:44.565Z,17.09
2017-06-13T00:57:27.598Z,17.12
2017-06-13T00:57:56.111Z,17.1
2017-06-13T00:58:24.613Z,17.09
2017-06-13T00:58:53.239Z,17.13
2017-06-13T00:59:21.872Z,17.13
2017-06-13T00:59:50.452Z,17.13
2017-06-13T01:00:18.987Z,17.09
2017-06-13T01:00:47.516Z,17.14
2017-06-13T01:01:16.104Z,17.12
2017-06-13T01:01:44.721Z,17.14
2017-06-13T01:02:13.364Z,17.13
2017-06-13T01:02:41.897Z,17.19
2017-06-13T01:03:10.520Z,17.19
2017-06-13T01:03:39.141Z,17.22
2017-06-13T01:04:07.744Z,17.23
2017-06-13T01:04:36.346Z,17.2
2017-06-13T01:05:04.981Z,17.2
2017-06-13T01:05:33.562Z,17.22
2017-06-13T01:06:02.087Z,17.24
2017-06-13T01:06:30.602Z,17.17
2017-06-13T01:06:59.205Z,17.3
2017-06-13T01:07:27.816Z,17.27
2017-06-13T01:07:56.459Z,17.23
2017-06-13T01:08:24.973Z,17.28
2017-06-13T01:08:53.503Z,17.19
2017-06-13T01:09:22.128Z,17.2
2017-06-13T01:09:50.765Z,17.17
2017-06-13T01:10:19.337Z,17.17
2017-06-13T01:10:47.927Z,17.16
2017-06-13T01:11:16.546Z,17.16
2017-06-13T01:11:45.165Z,17.1
2017-06-13T01:12:13.694Z,17.16
2017-06-13T01:12:42.200Z,17.2
2017-06-13T01:13:10.801Z,17.02
2017-06-13T01:13:39.316Z,17.09
2017-06-13T01:14:07.953Z,17.02
2017-06-13T01:14:36.300Z,17.02
2017-06-13T01:15:05.133Z,16.99
2017-06-13T01:15:33.732Z,16.99
2017-06-13T01:16:02.360Z,17.01
2017-06-13T01:16:30.894Z,16.92
2017-06-13T01:16:59.523Z,16.94
2017-06-13T01:17:28.138Z,16.94
2017-06-13T01:17:56.736Z,16.89
2017-06-13T01:18:25.239Z,16.92
2017-06-13T01:18:53.750Z,16.86
2017-06-13T01:19:22.380Z,16.91
2017-06-13T01:19:50.997Z,16.92
2017-06-13T01:20:19.520Z,16.89
2017-06-13T01:20:48.123Z,16.89
2017-06-13T01:21:16.737Z,16.87
2017-06-13T01:21:45.330Z,16.89
2017-06-13T01:22:13.981Z,16.95
2017-06-13T01:22:42.599Z,16.82
2017-06-13T01:23:11.142Z,16.86
2017-06-13T01:23:39.771Z,16.84
2017-06-13T01:24:08.283Z,16.84
2017-06-13T01:24:36.884Z,16.86
2017-06-13T01:25:05.514Z,16.83
2017-06-13T01:25:34.094Z,16.8
2017-06-13T01:26:02.708Z,16.79
2017-06-13T01:26:31.340Z,16.8
2017-06-13T01:26:59.948Z,16.83
2017-06-13T01:27:28.581Z,16.82
2017-06-13T01:27:58.941Z,16.83
2017-06-13T01:28:27.564Z,16.83
2017-06-13T01:28:56.194Z,16.82
2017-06-13T01:29:24.830Z,16.86
2017-06-13T01:29:53.437Z,16.84
2017-06-13T01:30:22.055Z,16.84
2017-06-13T01:30:50.689Z,16.79
2017-06-13T01:31:19.198Z,16.79
2017-06-13T01:31:47.816Z,16.84
2017-06-13T01:32:16.442Z,16.8
2017-06-13T01:32:45.047Z,16.87
2017-06-13T01:33:13.663Z,16.87
2017-06-13T01:33:42.277Z,16.82
2017-06-13T01:34:10.871Z,16.89
2017-06-13T01:34:39.490Z,16.86
2017-06-13T01:35:08.029Z,16.86
2017-06-13T01:35:36.636Z,16.89
2017-06-13T01:36:05.174Z,16.92
2017-06-13T01:36:33.777Z,16.94
2017-06-13T01:37:02.377Z,16.87
2017-06-13T01:37:30.946Z,16.87
2017-06-13T01:37:59.552Z,16.87
2017-06-13T01:38:28.192Z,16.87
2017-06-13T01:38:56.700Z,16.87
2017-06-13T01:39:25.234Z,16.86
2017-06-13T01:39:53.847Z,16.89
2017-06-13T01:40:22.374Z,16.86
2017-06-13T01:40:51.016Z,16.86
2017-06-13T01:41:19.624Z,16.84
2017-06-13T01:41:48.246Z,16.82
2017-06-13T01:42:16.841Z,16.83
2017-06-13T01:42:45.347Z,16.86
2017-06-13T01:43:13.956Z,16.84
2017-06-13T01:43:42.557Z,16.82
2017-06-13T01:44:11.187Z,16.87
2017-06-13T01:44:39.801Z,16.87
2017-06-13T01:45:08.409Z,16.83
2017-06-13T01:45:37.221Z,16.83
2017-06-13T01:46:05.825Z,16.8
2017-06-13T01:46:34.441Z,16.76
2017-06-13T01:47:03.050Z,16.76
2017-06-13T01:47:31.639Z,16.73
2017-06-13T01:48:00.242Z,16.69
2017-06-13T01:48:28.872Z,16.72
2017-06-13T01:48:57.462Z,16.68
2017-06-13T01:49:26.062Z,16.68
2017-06-13T01:49:54.680Z,16.62
2017-06-13T01:50:23.316Z,16.69
2017-06-13T01:50:51.930Z,16.64
2017-06-13T01:51:20.480Z,16.64
2017-06-13T01:51:48.993Z,16.65
2017-06-13T01:52:17.491Z,16.61
2017-06-13T01:52:46.099Z,16.57
2017-06-13T01:53:14.609Z,16.51
2017-06-13T01:53:43.234Z,16.64
2017-06-13T01:54:11.638Z,16.62
2017-06-13T01:54:40.259Z,16.57
2017-06-13T01:55:08.759Z,16.57
2017-06-13T01:55:37.371Z,16.62
2017-06-13T01:56:06.021Z,16.55
2017-06-13T01:56:34.625Z,16.57
2017-06-13T01:57:03.217Z,16.62
2017-06-13T01:57:31.714Z,16.5
2017-06-13T01:58:00.329Z,16.55
2017-06-13T01:58:28.945Z,16.5
2017-06-13T01:58:57.466Z,16.46
2017-06-13T01:59:25.992Z,16.46
2017-06-13T01:59:54.601Z,16.44
2017-06-13T02:00:23.132Z,16.39
2017-06-13T02:00:51.712Z,16.47
2017-06-13T02:01:20.309Z,16.46
2017-06-13T02:01:48.931Z,16.46
2017-06-13T02:02:17.534Z,16.46
2017-06-13T02:02:46.058Z,16.43
2017-06-13T02:03:14.638Z,16.44
2017-06-13T02:03:43.241Z,16.4
2017-06-13T02:04:11.688Z,16.46
2017-06-13T02:04:40.304Z,16.37
2017-06-13T02:05:08.729Z,16.36
2017-06-13T02:05:37.302Z,16.32
2017-06-13T02:06:05.918Z,16.41
2017-06-13T02:06:34.516Z,16.29
2017-06-13T02:07:03.121Z,16.32
2017-06-13T02:07:31.647Z,16.29
2017-06-13T02:08:00.267Z,16.24
2017-06-13T02:08:28.852Z,16.28
2017-06-13T02:08:57.458Z,16.25
2017-06-13T02:09:25.976Z,16.17
2017-06-13T02:09:54.576Z,16.18
2017-06-13T02:10:23.181Z,16.25
2017-06-13T02:10:51.811Z,16.16
2017-06-13T02:11:20.310Z,16.12
2017-06-13T02:11:48.916Z,16.1
2017-06-13T02:12:17.516Z,16.1
2017-06-13T02:12:46.031Z,16.08
2017-06-13T02:13:14.655Z,16.08
2017-06-13T02:13:43.358Z,16.08
2017-06-13T02:14:11.857Z,16.13
2017-06-13T02:14:40.374Z,16.08
2017-06-13T02:15:08.955Z,16.06
2017-06-13T02:15:37.566Z,15.98
2017-06-13T02:16:06.177Z,16.02
2017-06-13T02:16:34.730Z,16
2017-06-13T02:17:03.346Z,15.96
2017-06-13T02:17:31.895Z,15.98
2017-06-13T02:18:00.471Z,16.05
2017-06-13T02:18:28.910Z,16
2017-06-13T02:18:57.510Z,16.02
2017-06-13T02:19:26.145Z,16.03
2017-06-13T02:19:54.838Z,16
2017-06-13T02:20:23.345Z,15.99
2017-06-13T02:20:51.960Z,16.05
2017-06-13T02:21:20.471Z,16.05
2017-06-13T02:21:49.109Z,16
2017-06-13T02:22:17.636Z,16.09
2017-06-13T02:22:46.254Z,16.05
2017-06-13T02:23:14.882Z,16.05
2017-06-13T02:23:43.483Z,16.03
2017-06-13T02:24:12.090Z,16.08
2017-06-13T02:24:40.518Z,16.09
2017-06-13T02:25:09.126Z,16.06
2017-06-13T02:25:37.730Z,16.16
2017-06-13T02:26:06.243Z,16.1
2017-06-13T02:26:34.710Z,16.09
2017-06-13T02:27:03.322Z,16.03
2017-06-13T02:27:31.836Z,16.03
2017-06-13T02:28:00.413Z,16
2017-06-13T02:28:28.935Z,16.02
2017-06-13T02:28:57.446Z,16
2017-06-13T02:29:26.056Z,16.05
2017-06-13T02:29:54.663Z,16.05
2017-06-13T02:30:23.305Z,16.02
2017-06-13T02:30:51.925Z,16
2017-06-13T02:31:20.532Z,15.99
2017-06-13T02:31:49.152Z,15.99
2017-06-13T02:32:17.680Z,16.02
2017-06-13T02:32:46.189Z,16.03
2017-06-13T02:33:14.830Z,16.05
2017-06-13T02:33:43.265Z,16.08
2017-06-13T02:34:11.875Z,16.09
2017-06-13T02:34:40.485Z,16.06
2017-06-13T02:35:09.084Z,16.05
2017-06-13T02:35:37.670Z,16.05
2017-06-13T02:36:06.278Z,16.08
2017-06-13T02:36:34.786Z,16.03
2017-06-13T02:37:03.420Z,16.03
2017-06-13T02:37:32.035Z,16.08
2017-06-13T02:38:00.751Z,16.08
2017-06-13T02:38:29.284Z,16.09
2017-06-13T02:38:57.904Z,16.08
2017-06-13T02:39:26.500Z,16.09
2017-06-13T02:39:55.131Z,16.08
2017-06-13T02:40:23.634Z,16.13
2017-06-13T02:40:52.239Z,16.09
2017-06-13T02:41:20.860Z,16.02
2017-06-13T02:41:49.456Z,16.13
2017-06-13T02:42:18.067Z,16.02
2017-06-13T02:42:46.582Z,16.08
2017-06-13T02:43:15.168Z,16.05
2017-06-13T02:43:43.779Z,15.98
2017-06-13T02:44:12.373Z,15.98
2017-06-13T02:44:40.968Z,16.02
2017-06-13T02:45:09.555Z,15.94
2017-06-13T02:45:38.058Z,16.02
2017-06-13T02:46:06.678Z,15.92
2017-06-13T02:46:35.286Z,15.94
2017-06-13T02:47:03.888Z,15.91
2017-06-13T02:47:32.511Z,15.91
2017-06-13T02:48:01.132Z,15.84
2017-06-13T02:48:29.740Z,15.85
2017-06-13T02:48:58.351Z,15.94
2017-06-13T02:49:26.953Z,15.83
2017-06-13T02:49:55.528Z,15.87
2017-06-13T02:50:24.070Z,15.88
2017-06-13T02:50:52.795Z,15.81
2017-06-13T02:51:21.408Z,15.84
2017-06-13T02:51:49.945Z,15.78
2017-06-13T02:52:18.445Z,15.78
2017-06-13T02:52:47.078Z,15.84
2017-06-13T02:53:15.682Z,15.78
2017-06-13T02:53:44.278Z,15.8
2017-06-13T02:54:12.812Z,15.76
2017-06-13T02:54:41.224Z,15.73
2017-06-13T02:55:09.853Z,15.75
2017-06-13T02:55:38.452Z,15.75
2017-06-13T02:56:07.054Z,15.73
2017-06-13T02:56:35.483Z,15.7
2017-06-13T02:57:04.092Z,15.75
2017-06-13T02:57:32.728Z,15.72
2017-06-13T02:58:01.348Z,15.65
2017-06-13T02:58:29.854Z,15.7
2017-06-13T02:58:58.455Z,15.69
2017-06-13T02:59:27.050Z,15.63
2017-06-13T02:59:55.637Z,15.62
2017-06-13T03:00:24.239Z,15.59
2017-06-13T03:00:52.878Z,15.62
2017-06-13T03:01:21.510Z,15.6
2017-06-13T03:01:50.118Z,15.62
2017-06-13T03:02:18.725Z,15.62
2017-06-13T03:02:47.248Z,15.62
2017-06-13T03:03:15.851Z,15.59
2017-06-13T03:03:44.379Z,15.6
2017-06-13T03:04:13.000Z,15.7
2017-06-13T03:04:41.607Z,15.63
2017-06-13T03:05:10.223Z,15.65
2017-06-13T03:05:38.825Z,15.67
2017-06-13T03:06:07.453Z,15.6
2017-06-13T03:06:36.053Z,15.69
2017-06-13T03:07:04.674Z,15.65
2017-06-13T03:07:33.280Z,15.67
2017-06-13T03:08:01.905Z,15.65
2017-06-13T03:08:30.526Z,15.72
2017-06-13T03:08:59.152Z,15.66
2017-06-13T03:09:27.791Z,15.72
2017-06-13T03:09:56.400Z,15.72
2017-06-13T03:10:25.002Z,15.66
2017-06-13T03:10:53.632Z,15.69
2017-06-13T03:11:22.120Z,15.72
2017-06-13T03:11:50.755Z,15.75
2017-06-13T03:12:19.368Z,15.73
2017-06-13T03:12:47.860Z,15.75
2017-06-13T03:13:16.447Z,15.7
2017-06-13T03:13:45.079Z,15.75
2017-06-13T03:14:13.613Z,15.75
2017-06-13T03:14:42.136Z,15.75
2017-06-13T03:15:10.775Z,15.72
2017-06-13T03:15:39.379Z,15.72
2017-06-13T03:16:07.882Z,15.72
2017-06-13T03:16:36.470Z,15.75
2017-06-13T03:17:05.090Z,15.78
2017-06-13T03:17:33.704Z,15.76
2017-06-13T03:18:02.219Z,15.75
2017-06-13T03:18:30.837Z,15.76
2017-06-13T03:18:59.402Z,15.8
2017-06-13T03:19:28.005Z,15.73
2017-06-13T03:19:56.763Z,15.7
2017-06-13T03:20:25.269Z,15.7
2017-06-13T03:20:53.879Z,15.81
2017-06-13T03:21:22.502Z,15.85
2017-06-13T03:21:51.031Z,15.85
2017-06-13T03:22:19.526Z,15.84
2017-06-13T03:22:48.146Z,15.8
2017-06-13T03:23:16.760Z,15.75
2017-06-13T03:23:45.281Z,15.83
2017-06-13T03:24:13.895Z,15.76
2017-06-13T03:24:42.534Z,15.76
2017-06-13T03:25:11.124Z,15.78
2017-06-13T03:25:39.706Z,15.78
2017-06-13T03:26:08.323Z,15.76
2017-06-13T03:26:36.825Z,15.76
2017-06-13T03:27:05.450Z,15.78
2017-06-13T03:27:34.078Z,15.73
2017-06-13T03:28:02.671Z,15.75
2017-06-13T03:28:31.271Z,15.7
2017-06-13T03:28:59.877Z,15.63
2017-06-13T03:29:28.395Z,15.67
2017-06-13T03:29:56.876Z,15.7
2017-06-13T03:30:25.402Z,15.69
2017-06-13T03:30:53.999Z,15.73
2017-06-13T03:31:22.580Z,15.7
2017-06-13T03:31:51.193Z,15.66
2017-06-13T03:32:19.784Z,15.67
2017-06-13T03:32:48.389Z,15.75
2017-06-13T03:33:16.912Z,15.76
2017-06-13T03:33:45.537Z,15.72
2017-06-13T03:34:14.154Z,15.66
2017-06-13T03:34:42.768Z,15.69
2017-06-13T03:35:11.359Z,15.66
2017-06-13T03:35:39.984Z,15.62
2017-06-13T03:36:08.610Z,15.66
2017-06-13T03:36:37.127Z,15.6
2017-06-13T03:37:05.659Z,15.65
2017-06-13T03:37:34.265Z,15.6
2017-06-13T03:38:02.866Z,15.65
2017-06-13T03:38:31.466Z,15.57
2017-06-13T03:39:00.077Z,15.6
2017-06-13T03:39:28.579Z,15.66
2017-06-13T03:39:57.183Z,15.62
2017-06-13T03:40:25.785Z,15.63
2017-06-13T03:40:54.401Z,15.65
2017-06-13T03:41:23.009Z,15.7
2017-06-13T03:41:51.624Z,15.72
2017-06-13T03:42:20.245Z,15.69
2017-06-13T03:42:48.833Z,15.65
2017-06-13T03:43:17.431Z,15.7
2017-06-13T03:43:46.036Z,15.72
2017-06-13T03:44:15.461Z,15.69
2017-06-13T03:44:44.413Z,15.75
2017-06-13T03:45:13.042Z,15.69
2017-06-13T03:45:41.653Z,15.73
2017-06-13T03:46:10.149Z,15.63
2017-06-13T03:46:38.756Z,15.63
2017-06-13T03:47:07.364Z,15.7
2017-06-13T03:47:35.967Z,15.62
2017-06-13T03:48:04.572Z,15.76
2017-06-13T03:48:33.203Z,15.76
2017-06-13T03:49:01.720Z,15.72
2017-06-13T03:49:30.368Z,15.72
2017-06-13T03:49:58.990Z,15.7
2017-06-13T03:50:27.491Z,15.65
2017-06-13T03:50:56.110Z,15.72
2017-06-13T03:51:24.626Z,15.7
2017-06-13T03:51:53.136Z,15.65
2017-06-13T03:52:21.671Z,15.73
2017-06-13T03:52:50.272Z,15.7
2017-06-13T03:53:18.880Z,15.65
2017-06-13T03:53:47.458Z,15.65
2017-06-13T03:54:16.096Z,15.65
2017-06-13T03:54:44.706Z,15.69
2017-06-13T03:55:13.307Z,15.66
2017-06-13T03:55:41.893Z,15.62
2017-06-13T03:56:10.506Z,15.57
2017-06-13T03:56:39.120Z,15.65
2017-06-13T03:57:07.641Z,15.59
2017-06-13T03:57:36.155Z,15.55
2017-06-13T03:58:04.750Z,15.7
2017-06-13T03:58:33.378Z,15.67
2017-06-13T03:59:01.982Z,15.55
2017-06-13T03:59:30.516Z,15.59
2017-06-13T03:59:59.148Z,15.55
2017-06-13T04:00:27.761Z,15.59
2017-06-13T04:00:57.641Z,15.63
2017-06-13T04:01:26.131Z,15.51
2017-06-13T04:01:54.751Z,15.57
2017-06-13T04:02:23.422Z,15.62
2017-06-13T04:02:51.953Z,15.66
2017-06-13T04:03:20.555Z,15.62
2017-06-13T04:03:49.157Z,15.63
2017-06-13T04:04:17.791Z,15.66
2017-06-13T04:04:46.372Z,15.59
2017-06-13T04:05:14.983Z,15.67
2017-06-13T04:05:43.521Z,15.62
2017-06-13T04:06:12.149Z,15.66
2017-06-13T04:06:40.772Z,15.54
2017-06-13T04:07:09.380Z,15.63
2017-06-13T04:07:37.827Z,15.69
2017-06-13T04:08:06.411Z,15.69
2017-06-13T04:08:34.958Z,15.73
2017-06-13T04:09:03.600Z,15.67
2017-06-13T04:09:32.149Z,15.69
2017-06-13T04:10:00.754Z,15.78
2017-06-13T04:10:29.259Z,15.7
2017-06-13T04:10:57.766Z,15.7
2017-06-13T04:11:26.169Z,15.66
2017-06-13T04:11:54.785Z,15.67
2017-06-13T04:12:23.375Z,15.8
2017-06-13T04:12:51.965Z,15.78
2017-06-13T04:13:20.564Z,15.73
2017-06-13T04:13:49.074Z,15.75
2017-06-13T04:14:17.679Z,15.7
2017-06-13T04:14:46.295Z,15.8
2017-06-13T04:15:14.690Z,15.69
2017-06-13T04:15:43.296Z,15.72
2017-06-13T04:16:11.779Z,15.67
2017-06-13T04:16:40.394Z,15.83
2017-06-13T04:17:08.974Z,15.78
2017-06-13T04:17:37.645Z,15.75
2017-06-13T04:18:06.314Z,15.75
2017-06-13T04:18:36.721Z,15.78
2017-06-13T04:19:05.240Z,15.73
2017-06-13T04:19:33.860Z,15.73
2017-06-13T04:20:02.385Z,15.83
2017-06-13T04:20:30.879Z,15.75
2017-06-13T04:20:59.498Z,15.75
2017-06-13T04:21:28.098Z,15.8
2017-06-13T04:21:56.714Z,15.81
2017-06-13T04:22:25.227Z,15.84
2017-06-13T04:22:53.842Z,15.85
2017-06-13T04:23:22.440Z,15.84
2017-06-13T04:23:51.055Z,15.85
2017-06-13T04:24:19.576Z,15.85
2017-06-13T04:24:48.192Z,15.83
2017-06-13T04:25:16.784Z,15.83
2017-06-13T04:25:45.374Z,15.81
2017-06-13T04:26:13.905Z,15.75
2017-06-13T04:26:42.525Z,15.85
2017-06-13T04:27:11.121Z,15.81
2017-06-13T04:27:39.743Z,15.88
2017-06-13T04:28:08.361Z,15.81
2017-06-13T04:28:36.891Z,15.91
2017-06-13T04:29:05.502Z,15.83
2017-06-13T04:29:34.136Z,15.83
2017-06-13T04:30:02.746Z,15.81
2017-06-13T04:30:31.273Z,15.91
2017-06-13T04:30:59.701Z,15.92
2017-06-13T04:31:28.302Z,15.83
2017-06-13T04:31:56.917Z,15.91
2017-06-13T04:32:25.444Z,15.91
2017-06-13T04:32:54.021Z,15.92
2017-06-13T04:33:22.642Z,15.85
2017-06-13T04:33:51.252Z,15.91
2017-06-13T04:34:19.779Z,15.78
2017-06-13T04:34:48.385Z,15.81
2017-06-13T04:35:17.003Z,15.84
2017-06-13T04:35:45.607Z,15.83
2017-06-13T04:36:14.204Z,15.83
2017-06-13T04:36:42.823Z,15.81
2017-06-13T04:37:11.164Z,15.81
2017-06-13T04:37:39.774Z,15.83
2017-06-13T04:38:08.376Z,15.75
2017-06-13T04:38:36.996Z,15.84
2017-06-13T04:39:05.621Z,15.75
2017-06-13T04:39:34.232Z,15.76
2017-06-13T04:40:02.732Z,15.76
2017-06-13T04:40:31.143Z,15.78
2017-06-13T04:40:59.760Z,15.83
2017-06-13T04:41:28.296Z,15.81
2017-06-13T04:41:56.899Z,15.76
2017-06-13T04:42:25.409Z,15.75
2017-06-13T04:42:54.023Z,15.73
2017-06-13T04:43:22.546Z,15.72
2017-06-13T04:43:51.127Z,15.81
2017-06-13T04:44:19.729Z,15.78
2017-06-13T04:44:48.222Z,15.73
2017-06-13T04:45:16.769Z,15.76
2017-06-13T04:45:45.916Z,15.81
2017-06-13T04:46:15.460Z,15.75
2017-06-13T04:46:43.806Z,15.7
2017-06-13T04:47:12.434Z,15.69
2017-06-13T04:47:41.038Z,15.7
2017-06-13T04:48:09.662Z,15.75
2017-06-13T04:48:38.311Z,15.78
2017-06-13T04:49:06.917Z,15.72
2017-06-13T04:49:35.670Z,15.76
2017-06-13T04:50:04.284Z,15.72
2017-06-13T04:50:32.905Z,15.69
2017-06-13T04:51:01.530Z,15.69
2017-06-13T04:51:30.035Z,15.66
2017-06-13T04:51:58.628Z,15.72
2017-06-13T04:52:27.225Z,15.65
2017-06-13T04:52:55.760Z,15.67
2017-06-13T04:53:24.348Z,15.67
2017-06-13T04:53:52.973Z,15.62
2017-06-13T04:54:21.580Z,15.55
2017-06-13T04:54:50.179Z,15.62
2017-06-13T04:55:18.788Z,15.65
2017-06-13T04:55:47.417Z,15.54
2017-06-13T04:56:16.026Z,15.55
2017-06-13T04:56:44.517Z,15.55
2017-06-13T04:57:13.138Z,15.54
2017-06-13T04:57:41.749Z,15.51
2017-06-13T04:58:10.371Z,15.57
2017-06-13T04:58:38.901Z,15.51
2017-06-13T04:59:07.430Z,15.52
2017-06-13T04:59:36.050Z,15.48
2017-06-13T05:00:04.665Z,15.47
2017-06-13T05:00:33.248Z,15.44
2017-06-13T05:01:01.856Z,15.44
2017-06-13T05:01:30.476Z,15.44
2017-06-13T05:01:59.113Z,15.43
2017-06-13T05:02:27.739Z,15.44
2017-06-13T05:02:56.146Z,15.37
2017-06-13T05:03:24.550Z,15.5
2017-06-13T05:03:53.039Z,15.39
2017-06-13T05:04:21.635Z,15.35
2017-06-13T05:04:50.155Z,15.35
2017-06-13T05:05:18.765Z,15.39
2017-06-13T05:05:47.368Z,15.33
2017-06-13T05:06:15.992Z,15.36
2017-06-13T05:06:44.518Z,15.36
2017-06-13T05:07:13.010Z,15.33
2017-06-13T05:07:41.617Z,15.33
2017-06-13T05:08:10.253Z,15.32
2017-06-13T05:08:38.872Z,15.32
2017-06-13T05:09:07.389Z,15.3
2017-06-13T05:09:35.984Z,15.29
2017-06-13T05:10:04.470Z,15.33
2017-06-13T05:10:33.079Z,15.33
2017-06-13T05:11:01.561Z,15.29
2017-06-13T05:11:30.184Z,15.37
2017-06-13T05:11:58.820Z,15.36
2017-06-13T05:12:27.437Z,15.36
2017-06-13T05:12:56.031Z,15.33
2017-06-13T05:13:24.562Z,15.3
2017-06-13T05:13:53.208Z,15.32
2017-06-13T05:14:21.792Z,15.3
2017-06-13T05:14:50.393Z,15.3
2017-06-13T05:15:18.997Z,15.26
2017-06-13T05:15:47.642Z,15.29
2017-06-13T05:16:16.191Z,15.29
2017-06-13T05:16:44.795Z,15.29
2017-06-13T05:17:13.434Z,15.35
2017-06-13T05:17:42.052Z,15.3
2017-06-13T05:18:10.690Z,15.32
2017-06-13T05:18:39.305Z,15.33
2017-06-13T05:19:07.795Z,15.29
2017-06-13T05:19:36.404Z,15.32
2017-06-13T05:20:04.979Z,15.29
2017-06-13T05:20:33.583Z,15.29
2017-06-13T05:21:02.201Z,15.3
2017-06-13T05:21:30.813Z,15.35
2017-06-13T05:21:59.437Z,15.33
2017-06-13T05:22:27.952Z,15.43
2017-06-13T05:22:56.578Z,15.37
2017-06-13T05:23:25.206Z,15.37
2017-06-13T05:23:53.716Z,15.36
2017-06-13T05:24:22.465Z,15.36
2017-06-13T05:24:51.056Z,15.51
2017-06-13T05:25:19.465Z,15.43
2017-06-13T05:25:48.073Z,15.44
2017-06-13T05:26:16.576Z,15.43
2017-06-13T05:26:45.190Z,15.44
2017-06-13T05:27:13.806Z,15.45
2017-06-13T05:27:42.409Z,15.39
2017-06-13T05:28:10.838Z,15.41
2017-06-13T05:28:39.451Z,15.51
2017-06-13T05:29:07.970Z,15.5
2017-06-13T05:29:36.566Z,15.55
2017-06-13T05:30:05.162Z,15.6
2017-06-13T05:30:33.753Z,15.54
2017-06-13T05:31:02.386Z,15.55
2017-06-13T05:31:30.983Z,15.55
2017-06-13T05:31:59.520Z,15.66
2017-06-13T05:32:28.100Z,15.62
2017-06-13T05:32:56.701Z,15.59
2017-06-13T05:33:25.212Z,15.67
2017-06-13T05:33:53.604Z,15.65
2017-06-13T05:34:22.034Z,15.72
2017-06-13T05:34:50.613Z,15.75
2017-06-13T05:35:19.209Z,15.65
2017-06-13T05:35:47.786Z,15.78
2017-06-13T05:36:16.402Z,15.73
2017-06-13T05:36:45.000Z,15.8
2017-06-13T05:37:13.497Z,15.81
2017-06-13T05:37:42.026Z,15.78
2017-06-13T05:38:10.533Z,15.84
2017-06-13T05:38:39.142Z,15.81
2017-06-13T05:39:07.656Z,15.81
2017-06-13T05:39:36.280Z,15.78
2017-06-13T05:40:04.891Z,15.76
2017-06-13T05:40:33.504Z,15.78
2017-06-13T05:41:02.032Z,15.85
2017-06-13T05:41:30.524Z,15.81
2017-06-13T05:41:59.132Z,15.78
2017-06-13T05:42:27.657Z,15.91
2017-06-13T05:42:56.246Z,15.81
2017-06-13T05:43:24.870Z,15.8
2017-06-13T05:43:53.469Z,15.85
2017-06-13T05:44:21.990Z,15.88
2017-06-13T05:44:50.568Z,15.85
2017-06-13T05:45:19.195Z,15.91
2017-06-13T05:45:47.621Z,15.85
2017-06-13T05:46:16.225Z,15.87
2017-06-13T05:46:44.842Z,15.8
2017-06-13T05:47:13.445Z,15.83
2017-06-13T05:47:42.040Z,15.85
2017-06-13T05:48:10.675Z,15.85
2017-06-13T05:48:39.297Z,15.84
2017-06-13T05:49:07.823Z,15.84
2017-06-13T05:49:36.428Z,15.83
2017-06-13T05:50:05.022Z,15.85
2017-06-13T05:50:33.533Z,15.8
2017-06-13T05:51:02.135Z,15.78
2017-06-13T05:51:30.747Z,15.73
2017-06-13T05:51:59.348Z,15.75
2017-06-13T05:52:27.965Z,15.72
2017-06-13T05:52:56.496Z,15.69
2017-06-13T05:53:25.127Z,15.66
2017-06-13T05:53:53.715Z,15.69
2017-06-13T05:54:22.454Z,15.75
2017-06-13T05:54:51.079Z,15.69
2017-06-13T05:55:19.603Z,15.62
2017-06-13T05:55:48.023Z,15.73
2017-06-13T05:56:16.628Z,15.75
2017-06-13T05:56:45.145Z,15.73
2017-06-13T05:57:13.772Z,15.67
2017-06-13T05:57:42.273Z,15.76
2017-06-13T05:58:10.882Z,15.73
2017-06-13T05:58:39.386Z,15.75
2017-06-13T05:59:07.905Z,15.8
2017-06-13T05:59:36.430Z,15.8
2017-06-13T06:00:04.966Z,15.73
2017-06-13T06:00:33.563Z,15.85
2017-06-13T06:01:02.198Z,15.81
2017-06-13T06:01:30.817Z,15.85
2017-06-13T06:01:59.336Z,15.83
2017-06-13T06:02:27.938Z,15.75
2017-06-13T06:02:56.427Z,15.85
2017-06-13T06:03:25.015Z,15.84
2017-06-13T06:03:53.612Z,15.84
2017-06-13T06:04:22.218Z,15.87
2017-06-13T06:04:50.816Z,15.83
2017-06-13T06:05:19.433Z,15.84
2017-06-13T06:05:48.049Z,15.8
2017-06-13T06:06:16.651Z,15.83
2017-06-13T06:06:45.248Z,15.85
2017-06-13T06:07:13.838Z,15.83
2017-06-13T06:07:42.427Z,15.84
2017-06-13T06:08:10.938Z,15.76
2017-06-13T06:08:39.251Z,15.83
2017-06-13T06:09:07.746Z,15.85
2017-06-13T06:09:36.352Z,15.85
2017-06-13T06:10:04.936Z,15.88
2017-06-13T06:10:33.537Z,15.81